Time;durP1;ratioP1;P1;durP2;ratioP2;P2;SDS_P1;SDS_P2;PMS_P1;PMS_P2;Temp;Humidity;BMP_temperature;BMP_pressure;BME280_temperature;BME280_humidity;BME280_pressure;Samples;Min_cycle;Max_cycle;Signal;HPM_P1;HPM_P2
2022/09/09 00:02:05;;;;;;;1.40;1.10;;;20.70;65.70;;;;;;5052873;28;20063;-72
2022/09/09 00:04:33;;;;;;;1.42;1.20;;;20.70;65.60;;;;;;5053222;28;20052;-73
2022/09/09 00:07:06;;;;;;;1.73;1.38;;;20.70;65.60;;;;;;5052554;28;20055;-72
2022/09/09 00:09:39;;;;;;;1.42;1.10;;;20.70;65.60;;;;;;5052873;28;20063;-74
2022/09/09 00:12:11;;;;;;;1.67;1.23;;;20.70;65.60;;;;;;5052925;28;20063;-72
2022/09/09 00:14:41;;;;;;;1.67;1.30;;;20.70;65.60;;;;;;5053011;28;20383;-72
2022/09/09 00:17:09;;;;;;;2.42;1.40;;;20.70;65.60;;;;;;5053695;28;20053;-72
2022/09/09 00:19:41;;;;;;;1.50;1.20;;;20.70;65.60;;;;;;5053886;28;20056;-72
2022/09/09 00:22:15;;;;;;;1.77;1.20;;;20.60;65.60;;;;;;5053758;28;20056;-72
2022/09/09 00:24:45;;;;;;;2.78;1.38;;;20.70;65.60;;;;;;5053103;28;20059;-72
2022/09/09 00:27:17;;;;;;;1.50;1.30;;;20.60;65.50;;;;;;5053415;28;20060;-72
2022/09/09 00:29:45;;;;;;;1.70;1.35;;;20.70;65.60;;;;;;5052548;28;20136;-73
2022/09/09 00:32:14;;;;;;;1.30;1.15;;;20.60;65.60;;;;;;5053637;28;20044;-73
2022/09/09 00:34:42;;;;;;;1.73;1.13;;;20.60;65.50;;;;;;5053856;28;20055;-72
2022/09/09 00:37:09;;;;;;;1.90;1.35;;;20.60;65.50;;;;;;5051615;28;20597;-72
2022/09/09 00:39:38;;;;;;;1.63;1.38;;;20.60;65.50;;;;;;5053513;28;20059;-72
2022/09/09 00:42:14;;;;;;;1.50;1.25;;;20.60;65.50;;;;;;5053242;28;20416;-72
2022/09/09 00:44:47;;;;;;;2.25;1.60;;;20.60;65.50;;;;;;5053633;28;20044;-73
2022/09/09 00:47:22;;;;;;;1.48;1.30;;;20.60;65.50;;;;;;5053255;28;20056;-72
2022/09/09 00:49:55;;;;;;;2.50;1.40;;;20.60;65.50;;;;;;5052162;28;20067;-72
2022/09/09 00:52:27;;;;;;;1.55;1.30;;;20.60;65.50;;;;;;5053031;28;20087;-73
2022/09/09 00:54:57;;;;;;;1.85;1.40;;;20.60;65.50;;;;;;5053370;28;20460;-74
2022/09/09 00:57:28;;;;;;;1.40;1.30;;;20.60;65.50;;;;;;5053157;28;20049;-74
2022/09/09 00:59:59;;;;;;;1.67;1.40;;;20.60;65.50;;;;;;5053055;28;20516;-76
2022/09/09 01:02:29;;;;;;;1.38;1.27;;;20.60;65.50;;;;;;5053007;28;20094;-72
2022/09/09 01:04:58;;;;;;;1.40;1.20;;;20.60;65.50;;;;;;5051674;28;20482;-72
2022/09/09 01:07:25;;;;;;;1.33;1.23;;;20.60;65.50;;;;;;5052679;28;20059;-73
2022/09/09 01:09:53;;;;;;;1.50;1.40;;;20.60;65.50;;;;;;5052827;28;20056;-72
2022/09/09 01:12:27;;;;;;;1.15;1.05;;;20.60;65.50;;;;;;5052860;28;20053;-72
2022/09/09 01:14:57;;;;;;;1.48;1.25;;;20.60;65.40;;;;;;5052035;28;20057;-72
2022/09/09 01:17:25;;;;;;;1.88;1.27;;;20.50;65.50;;;;;;5051606;28;20110;-72
2022/09/09 01:20:02;;;;;;;1.55;1.45;;;20.50;65.40;;;;;;5052708;28;20056;-72
2022/09/09 01:22:34;;;;;;;1.75;1.30;;;20.50;65.40;;;;;;5051413;28;20061;-74
2022/09/09 01:25:25;;;;;;;1.50;1.20;;;20.50;65.40;;;;;;5052660;28;20045;-73
2022/09/09 01:27:54;;;;;;;1.98;1.40;;;20.60;65.30;;;;;;5045230;28;20052;-73
2022/09/09 01:30:21;;;;;;;2.47;1.40;;;20.50;65.40;;;;;;5052150;28;20144;-73
2022/09/09 01:32:49;;;;;;;1.40;1.30;;;20.50;65.40;;;;;;5051516;28;20135;-72
2022/09/09 01:35:30;;;;;;;3.33;2.22;;;21.50;65.90;;;;;;5052427;28;20057;-72
2022/09/09 01:37:56;;;;;;;1.58;1.30;;;20.50;65.40;;;;;;5032601;28;20072;-72
2022/09/09 01:40:24;;;;;;;2.05;1.40;;;20.50;65.40;;;;;;5032314;28;20558;-74
2022/09/09 01:42:50;;;;;;;1.50;1.40;;;20.50;65.40;;;;;;5032350;28;20046;-72
2022/09/09 01:45:18;;;;;;;1.58;1.30;;;20.50;65.40;;;;;;5032391;28;20783;-72
2022/09/09 01:47:45;;;;;;;2.17;1.30;;;20.50;65.40;;;;;;5051433;28;20051;-72
2022/09/09 01:50:13;;;;;;;1.40;1.17;;;20.50;65.40;;;;;;5050948;28;20487;-72
2022/09/09 01:52:40;;;;;;;1.42;1.30;;;20.50;65.40;;;;;;5052073;28;20056;-72
2022/09/09 01:55:08;;;;;;;2.53;1.20;;;20.50;65.30;;;;;;5051035;28;20052;-74
2022/09/09 01:57:37;;;;;;;1.30;1.20;;;20.50;65.30;;;;;;5050636;28;20059;-74
2022/09/09 02:00:08;;;;;;;2.15;1.50;;;20.50;65.40;;;;;;5050628;28;20067;-74
2022/09/09 02:02:37;;;;;;;1.83;1.30;;;20.40;65.30;;;;;;5067703;28;20067;-74
2022/09/09 02:05:10;;;;;;;1.63;1.42;;;20.50;65.30;;;;;;5050316;28;20494;-74
2022/09/09 02:07:39;;;;;;;2.00;1.40;;;20.50;65.30;;;;;;5050780;28;20044;-74
2022/09/09 02:10:11;;;;;;;1.33;1.23;;;20.50;65.40;;;;;;5050449;28;20049;-74
2022/09/09 02:12:38;;;;;;;1.88;1.58;;;20.40;65.30;;;;;;5050993;28;20063;-74
2022/09/09 02:15:09;;;;;;;2.35;1.30;;;20.40;65.30;;;;;;5050339;28;20061;-74
2022/09/09 02:17:37;;;;;;;1.75;1.40;;;20.40;65.30;;;;;;5050823;28;20574;-74
2022/09/09 02:20:07;;;;;;;1.50;1.35;;;20.40;65.30;;;;;;5050555;28;20056;-74
2022/09/09 02:22:34;;;;;;;1.35;1.25;;;20.40;65.30;;;;;;5050778;28;20057;-74
2022/09/09 02:25:01;;;;;;;1.73;1.40;;;20.40;65.30;;;;;;5050058;28;20045;-74
2022/09/09 02:27:28;;;;;;;1.65;1.30;;;20.40;65.30;;;;;;5050502;28;20052;-74
2022/09/09 02:29:54;;;;;;;1.80;1.30;;;20.40;65.30;;;;;;5051479;28;20053;-71
2022/09/09 02:32:23;;;;;;;2.55;1.20;;;20.40;65.30;;;;;;5050552;28;20057;-74
2022/09/09 02:34:53;;;;;;;2.70;1.48;;;20.40;65.30;;;;;;5050227;28;20053;-74
2022/09/09 02:37:21;;;;;;;1.30;1.20;;;20.40;65.30;;;;;;5050365;28;20486;-74
2022/09/09 02:39:48;;;;;;;1.83;1.20;;;20.40;65.30;;;;;;5050629;28;20506;-74
2022/09/09 02:42:15;;;;;;;1.63;1.23;;;20.40;65.30;;;;;;5050162;28;20059;-74
2022/09/09 02:44:42;;;;;;;1.67;1.30;;;20.40;65.30;;;;;;5049945;28;20045;-74
2022/09/09 02:47:16;;;;;;;1.45;1.30;;;20.40;65.30;;;;;;5050852;28;20057;-74
2022/09/09 02:49:49;;;;;;;1.45;1.25;;;20.40;65.30;;;;;;5054645;28;20052;-74
2022/09/09 02:52:20;;;;;;;1.30;1.20;;;20.40;65.30;;;;;;5054425;28;20114;-74
2022/09/09 02:54:46;;;;;;;1.63;1.30;;;20.40;65.40;;;;;;5055338;28;20053;-74
2022/09/09 02:57:15;;;;;;;2.05;1.27;;;20.40;65.30;;;;;;5054328;28;20052;-74
2022/09/09 02:59:42;;;;;;;1.48;1.10;;;20.40;65.40;;;;;;5054391;28;20053;-74
2022/09/09 03:02:09;;;;;;;1.63;1.20;;;20.40;65.40;;;;;;5053872;28;20065;-74
2022/09/09 03:04:36;;;;;;;1.95;1.30;;;20.30;65.30;;;;;;5053776;28;20072;-74
2022/09/09 03:07:03;;;;;;;1.20;1.10;;;20.40;65.40;;;;;;5055218;28;20084;-74
2022/09/09 03:09:32;;;;;;;1.30;1.20;;;20.40;65.40;;;;;;5070958;28;20535;-73
2022/09/09 03:11:59;;;;;;;1.13;1.02;;;20.40;65.40;;;;;;5053723;28;20049;-74
2022/09/09 03:14:26;;;;;;;1.88;1.10;;;20.40;65.90;;;;;;5053630;28;20374;-74
2022/09/09 03:16:52;;;;;;;1.27;1.10;;;20.40;65.40;;;;;;5053735;28;20063;-74
2022/09/09 03:19:19;;;;;;;2.28;1.20;;;20.40;65.40;;;;;;5054019;28;20044;-74
2022/09/09 03:21:46;;;;;;;1.60;1.20;;;20.40;65.40;;;;;;5053792;28;20502;-74
2022/09/09 03:24:13;;;;;;;1.25;1.10;;;20.40;65.40;;;;;;5053691;28;20049;-73
2022/09/09 03:26:44;;;;;;;1.95;1.30;;;20.40;65.40;;;;;;5053212;28;20605;-74
2022/09/09 03:29:12;;;;;;;1.40;1.30;;;20.30;65.30;;;;;;5053852;28;20140;-74
2022/09/09 03:31:39;;;;;;;1.20;1.10;;;20.30;65.40;;;;;;5053614;28;20083;-73
2022/09/09 03:34:05;;;;;;;1.30;1.10;;;20.30;65.40;;;;;;5054735;28;20048;-74
2022/09/09 03:36:33;;;;;;;1.20;1.10;;;20.30;65.40;;;;;;5070152;28;20060;-74
2022/09/09 03:39:00;;;;;;;1.77;1.20;;;20.30;65.40;;;;;;5053447;28;20059;-74
2022/09/09 03:41:27;;;;;;;1.88;1.10;;;20.30;65.40;;;;;;5053457;28;20084;-74
2022/09/09 03:43:55;;;;;;;1.30;1.20;;;20.30;65.40;;;;;;5053197;28;20053;-74
2022/09/09 03:46:22;;;;;;;1.50;1.10;;;20.30;65.30;;;;;;5052781;28;20056;-74
2022/09/09 03:48:48;;;;;;;1.30;1.10;;;20.30;65.30;;;;;;5053484;28;20052;-74
2022/09/09 03:51:15;;;;;;;2.17;1.15;;;20.30;65.40;;;;;;5053183;28;20156;-74
2022/09/09 03:53:42;;;;;;;1.30;1.10;;;20.30;65.40;;;;;;5053396;28;20053;-74
2022/09/09 03:56:09;;;;;;;1.95;1.17;;;20.30;65.40;;;;;;5052880;28;20080;-74
2022/09/09 03:58:36;;;;;;;2.83;1.30;;;20.30;65.30;;;;;;5052046;28;20417;-74
2022/09/09 04:01:05;;;;;;;1.10;1.00;;;20.20;65.30;;;;;;5052638;28;20063;-74
2022/09/09 04:03:32;;;;;;;1.38;1.20;;;20.30;65.30;;;;;;5052891;28;20166;-74
2022/09/09 04:05:59;;;;;;;1.60;1.27;;;20.30;65.40;;;;;;5052796;28;20053;-74
2022/09/09 04:08:26;;;;;;;1.35;1.20;;;20.30;65.30;;;;;;5053870;28;20702;-74
2022/09/09 04:10:53;;;;;;;2.38;1.10;;;20.30;65.30;;;;;;5052863;28;20139;-74
2022/09/09 04:13:20;;;;;;;1.48;1.27;;;20.30;65.30;;;;;;5052984;28;20057;-73
2022/09/09 04:15:51;;;;;;;1.23;1.10;;;20.30;65.30;;;;;;5052543;28;20387;-74
2022/09/09 04:18:20;;;;;;;2.83;1.27;;;20.30;65.30;;;;;;5053142;28;20057;-73
2022/09/09 04:20:47;;;;;;;1.80;1.10;;;20.30;65.40;;;;;;5053726;28;20049;-74
2022/09/09 04:23:14;;;;;;;1.23;1.13;;;20.30;65.40;;;;;;5053191;28;20145;-74
2022/09/09 04:25:44;;;;;;;1.30;1.20;;;20.30;65.40;;;;;;5051757;28;20041;-74
2022/09/09 04:28:11;;;;;;;1.40;1.20;;;20.30;65.40;;;;;;5052261;28;20156;-74
2022/09/09 04:30:39;;;;;;;1.35;1.10;;;20.30;65.40;;;;;;5053334;28;20640;-74
2022/09/09 04:33:06;;;;;;;1.92;1.20;;;20.30;65.50;;;;;;5052252;28;20056;-73
2022/09/09 04:35:38;;;;;;;1.52;1.10;;;20.30;65.50;;;;;;5049485;28;20049;-72
2022/09/09 04:38:07;;;;;;;1.48;1.15;;;20.30;65.50;;;;;;5052628;28;20049;-72
2022/09/09 04:40:33;;;;;;;1.48;1.20;;;20.30;65.50;;;;;;5049439;28;20488;-72
2022/09/09 04:43:00;;;;;;;1.55;1.20;;;20.30;65.50;;;;;;5052299;28;20090;-72
2022/09/09 04:45:27;;;;;;;1.25;1.02;;;20.30;65.50;;;;;;5051633;28;20053;-73
2022/09/09 04:47:54;;;;;;;1.35;1.08;;;20.30;65.50;;;;;;5049344;28;20397;-74
2022/09/09 04:50:21;;;;;;;2.40;1.15;;;20.30;65.50;;;;;;5051843;28;20141;-73
2022/09/09 04:52:49;;;;;;;1.83;1.10;;;20.30;65.50;;;;;;5052132;28;20453;-74
2022/09/09 04:55:16;;;;;;;1.27;1.02;;;20.30;65.50;;;;;;5049100;28;20127;-74
2022/09/09 04:57:42;;;;;;;1.35;1.10;;;20.30;65.50;;;;;;5051501;28;20511;-74
2022/09/09 05:00:10;;;;;;;1.52;1.00;;;20.20;65.50;;;;;;5051191;28;20059;-74
2022/09/09 05:02:38;;;;;;;1.15;1.02;;;20.30;65.50;;;;;;5052326;28;20055;-74
2022/09/09 05:05:05;;;;;;;1.25;1.08;;;20.20;66.00;;;;;;5051500;28;20049;-74
2022/09/09 05:07:32;;;;;;;1.80;1.20;;;20.20;65.50;;;;;;5051688;28;20057;-74
2022/09/09 05:10:00;;;;;;;1.45;1.00;;;20.30;65.50;;;;;;5051283;28;20060;-74
2022/09/09 05:12:26;;;;;;;1.50;1.10;;;20.30;65.50;;;;;;5051607;28;20053;-74
2022/09/09 05:14:53;;;;;;;1.40;1.05;;;20.20;65.50;;;;;;5051795;28;20048;-74
2022/09/09 05:17:20;;;;;;;1.45;1.10;;;20.20;65.50;;;;;;5051502;28;20056;-74
2022/09/09 05:19:47;;;;;;;1.15;1.00;;;20.20;65.50;;;;;;5051062;28;20059;-74
2022/09/09 05:22:13;;;;;;;2.45;1.20;;;20.20;65.50;;;;;;5051599;28;20107;-74
2022/09/09 05:24:40;;;;;;;1.65;1.00;;;20.20;65.50;;;;;;5052765;28;20381;-74
2022/09/09 05:27:11;;;;;;;1.38;1.15;;;20.20;65.50;;;;;;5051509;28;20052;-74
2022/09/09 05:29:38;;;;;;;1.60;1.40;;;20.20;65.50;;;;;;5051342;28;20059;-74
2022/09/09 05:32:05;;;;;;;1.10;0.90;;;20.20;65.50;;;;;;5051292;28;20053;-74
2022/09/09 05:34:32;;;;;;;1.10;1.00;;;20.20;65.50;;;;;;5052576;28;20060;-74
2022/09/09 05:36:59;;;;;;;2.25;1.13;;;20.20;65.50;;;;;;5051533;28;20055;-74
2022/09/09 05:39:25;;;;;;;1.20;1.10;;;20.20;65.50;;;;;;5051744;28;20060;-74
2022/09/09 05:41:52;;;;;;;2.22;1.10;;;20.20;65.50;;;;;;5050997;28;20063;-73
2022/09/09 05:44:22;;;;;;;1.08;0.95;;;20.20;65.50;;;;;;5051083;28;20049;-74
2022/09/09 05:46:49;;;;;;;1.63;1.08;;;20.20;65.50;;;;;;5050823;28;20053;-74
2022/09/09 05:49:16;;;;;;;1.10;1.00;;;20.20;65.50;;;;;;5051258;28;20067;-73
2022/09/09 05:51:44;;;;;;;1.25;1.08;;;20.20;65.50;;;;;;5051956;28;20533;-73
2022/09/09 05:54:11;;;;;;;1.55;0.98;;;20.20;65.60;;;;;;5052076;28;20098;-74
2022/09/09 05:56:38;;;;;;;1.00;0.90;;;20.20;65.50;;;;;;5051956;28;20049;-73
2022/09/09 05:59:06;;;;;;;1.10;1.00;;;20.20;65.60;;;;;;5052077;28;20102;-73
2022/09/09 06:01:35;;;;;;;1.48;1.13;;;20.20;65.50;;;;;;5051470;28;20056;-72
2022/09/09 06:04:02;;;;;;;1.40;1.30;;;20.20;65.50;;;;;;5051051;28;20061;-72
2022/09/09 06:06:31;;;;;;;1.40;1.02;;;20.20;65.50;;;;;;5050950;28;20065;-72
2022/09/09 06:08:58;;;;;;;1.23;1.00;;;20.20;65.50;;;;;;5050616;28;20053;-72
2022/09/09 06:11:26;;;;;;;1.55;1.00;;;20.20;65.50;;;;;;5050521;28;20098;-72
2022/09/09 06:13:54;;;;;;;1.23;1.02;;;20.20;65.50;;;;;;5052006;28;20102;-72
2022/09/09 06:16:22;;;;;;;1.73;1.20;;;20.20;65.50;;;;;;5050472;28;20493;-72
2022/09/09 06:18:51;;;;;;;1.63;1.10;;;20.20;65.50;;;;;;5050583;28;20048;-73
2022/09/09 06:21:18;;;;;;;1.20;1.10;;;20.20;65.50;;;;;;5051425;28;20053;-74
2022/09/09 06:23:45;;;;;;;1.25;1.10;;;20.20;66.00;;;;;;5049496;28;20139;-74
2022/09/09 06:26:12;;;;;;;1.80;0.90;;;20.20;65.50;;;;;;5050334;28;20533;-73
2022/09/09 06:28:39;;;;;;;1.10;0.93;;;20.20;65.50;;;;;;5050489;28;20063;-74
2022/09/09 06:31:07;;;;;;;1.63;1.20;;;20.20;65.50;;;;;;5050692;28;20063;-73
2022/09/09 06:33:35;;;;;;;1.65;0.93;;;20.20;65.50;;;;;;5050529;28;20060;-73
2022/09/09 06:36:04;;;;;;;1.42;0.90;;;20.20;65.50;;;;;;5050512;28;20049;-73
2022/09/09 06:38:31;;;;;;;1.25;1.00;;;20.20;65.50;;;;;;5050798;28;20056;-74
2022/09/09 06:40:59;;;;;;;1.00;0.90;;;20.20;65.50;;;;;;5051284;28;20063;-73
2022/09/09 06:43:26;;;;;;;1.45;1.05;;;20.20;65.50;;;;;;5051040;28;20041;-73
2022/09/09 06:45:56;;;;;;;4.25;1.08;;;20.20;65.50;;;;;;5049575;28;20056;-73
2022/09/09 06:48:23;;;;;;;1.20;1.10;;;20.20;65.40;;;;;;5050140;28;20413;-73
2022/09/09 06:50:50;;;;;;;1.08;0.98;;;20.20;65.50;;;;;;5049891;28;20049;-74
2022/09/09 06:53:19;;;;;;;1.45;1.05;;;20.20;65.40;;;;;;5051669;28;20049;-73
2022/09/09 06:55:46;;;;;;;1.70;0.90;;;20.20;65.40;;;;;;5051523;28;20056;-72
2022/09/09 06:58:13;;;;;;;1.00;0.90;;;20.20;65.30;;;;;;5050042;28;20063;-73
2022/09/09 07:00:40;;;;;;;0.85;0.80;;;20.40;67.80;;;;;;5050258;28;20061;-74
2022/09/09 07:03:07;;;;;;;1.20;1.10;;;20.30;65.30;;;;;;5048885;28;20053;-74
2022/09/09 07:05:34;;;;;;;1.38;0.90;;;20.30;65.30;;;;;;5046910;28;20044;-73
2022/09/09 07:08:00;;;;;;;0.93;0.90;;;20.30;65.20;;;;;;5049181;28;20478;-73
2022/09/09 07:10:28;;;;;;;1.10;1.00;;;20.30;65.20;;;;;;5049737;28;20063;-73
2022/09/09 07:12:55;;;;;;;1.13;0.90;;;20.30;65.10;;;;;;5050418;28;20057;-74
2022/09/09 07:15:22;;;;;;;1.48;1.00;;;20.30;65.10;;;;;;5049396;28;20478;-73
2022/09/09 07:17:49;;;;;;;1.05;0.90;;;20.30;65.10;;;;;;5047135;28;20053;-74
2022/09/09 07:20:16;;;;;;;1.00;0.90;;;20.30;65.00;;;;;;5049963;28;20049;-74
2022/09/09 07:22:42;;;;;;;0.90;0.90;;;20.40;65.10;;;;;;5050162;28;20136;-75
2022/09/09 07:25:09;;;;;;;1.05;0.80;;;20.40;65.10;;;;;;5050138;28;20056;-74
2022/09/09 07:27:37;;;;;;;3.42;1.10;;;20.40;65.00;;;;;;5049615;28;20140;-74
2022/09/09 07:30:05;;;;;;;2.08;1.00;;;20.40;65.00;;;;;;5049598;28;20490;-74
2022/09/09 07:32:33;;;;;;;1.20;0.80;;;20.40;65.00;;;;;;5044155;28;20081;-74
2022/09/09 07:34:59;;;;;;;1.48;1.00;;;20.40;65.00;;;;;;5033606;28;20107;-73
2022/09/09 07:37:26;;;;;;;1.98;1.00;;;20.40;65.00;;;;;;5035358;28;20132;-74
2022/09/09 07:39:53;;;;;;;1.50;1.00;;;20.40;64.90;;;;;;5053209;28;20052;-74
2022/09/09 07:42:20;;;;;;;1.80;0.90;;;20.40;64.90;;;;;;5053576;28;20053;-74
2022/09/09 07:44:48;;;;;;;4.60;0.90;;;20.40;64.90;;;;;;5053454;28;20071;-74
2022/09/09 07:47:14;;;;;;;1.88;1.02;;;20.40;64.90;;;;;;5053577;28;20136;-73
2022/09/09 07:49:41;;;;;;;1.38;0.82;;;20.50;65.00;;;;;;5054699;28;20040;-74
2022/09/09 07:52:08;;;;;;;4.07;1.00;;;20.40;64.90;;;;;;5052924;28;20063;-74
2022/09/09 07:54:35;;;;;;;2.13;1.27;;;20.40;64.90;;;;;;5052735;28;20486;-74
2022/09/09 07:57:03;;;;;;;1.60;1.00;;;20.50;64.90;;;;;;5053338;28;20053;-74
2022/09/09 07:59:30;;;;;;;1.85;1.10;;;20.50;64.90;;;;;;5053246;28;20059;-74
2022/09/09 08:01:58;;;;;;;2.67;1.10;;;20.50;65.00;;;;;;5052527;28;20508;-73
2022/09/09 08:04:25;;;;;;;3.90;1.10;;;20.50;65.10;;;;;;5053183;28;20057;-74
2022/09/09 08:06:53;;;;;;;3.03;0.90;;;20.40;65.00;;;;;;5053296;28;20059;-74
2022/09/09 08:09:20;;;;;;;1.98;0.90;;;20.50;65.00;;;;;;5053263;28;20056;-73
2022/09/09 08:11:47;;;;;;;1.90;1.10;;;20.50;65.00;;;;;;5053031;28;20063;-72
2022/09/09 08:14:13;;;;;;;1.40;0.90;;;20.40;65.00;;;;;;5052627;28;20087;-73
2022/09/09 08:16:42;;;;;;;2.22;1.45;;;20.40;64.90;;;;;;5052377;28;20570;-73
2022/09/09 08:19:10;;;;;;;1.70;1.10;;;20.50;65.00;;;;;;5052615;28;20632;-73
2022/09/09 08:21:38;;;;;;;2.72;1.10;;;20.50;65.00;;;;;;5053929;28;20072;-74
2022/09/09 08:24:05;;;;;;;3.60;1.30;;;20.50;65.00;;;;;;5052977;28;20453;-73
2022/09/09 08:26:34;;;;;;;4.40;1.30;;;20.50;65.00;;;;;;5068754;28;20056;-74
2022/09/09 08:29:01;;;;;;;3.85;1.55;;;20.50;65.00;;;;;;5052375;28;20560;-73
2022/09/09 08:31:29;;;;;;;2.80;1.00;;;20.50;64.90;;;;;;5053583;28;20077;-74
2022/09/09 08:33:56;;;;;;;2.40;1.00;;;20.50;65.00;;;;;;5052045;28;20059;-75
2022/09/09 08:36:25;;;;;;;4.03;1.08;;;20.50;64.90;;;;;;5052754;28;20049;-74
2022/09/09 08:38:54;;;;;;;1.73;0.82;;;20.50;64.90;;;;;;5052498;28;20057;-75
2022/09/09 08:41:35;;;;;;;1.15;1.00;;;20.60;64.90;;;;;;5051920;28;20055;-75
2022/09/09 08:44:05;;;;;;;1.80;1.20;;;20.60;64.80;;;;;;5049349;28;20045;-72
2022/09/09 08:46:35;;;;;;;1.88;0.80;;;20.60;64.80;;;;;;5049492;28;20045;-72
2022/09/09 08:49:03;;;;;;;2.42;0.90;;;20.60;64.80;;;;;;5053280;28;20441;-73
2022/09/09 08:51:31;;;;;;;1.77;1.08;;;20.60;64.80;;;;;;5052090;28;20057;-73
2022/09/09 08:53:58;;;;;;;1.35;1.00;;;20.60;64.70;;;;;;5052408;28;20075;-74
2022/09/09 08:56:26;;;;;;;3.42;1.05;;;20.60;64.80;;;;;;5052338;28;20132;-74
2022/09/09 08:58:53;;;;;;;4.85;1.13;;;20.70;65.10;;;;;;5052421;28;20387;-74
2022/09/09 09:01:42;;;;;;;5.28;1.55;;;20.70;65.30;;;;;;5052029;28;20056;-74
2022/09/09 09:04:18;;;;;;;3.63;1.10;;;20.70;65.50;;;;;;5052361;28;20131;-74
2022/09/09 09:06:51;;;;;;;3.75;1.23;;;20.80;65.50;;;;;;5051680;28;20053;-74
2022/09/09 09:09:22;;;;;;;3.53;1.17;;;20.80;65.40;;;;;;5052252;28;20136;-73
2022/09/09 09:11:50;;;;;;;5.32;1.40;;;20.80;65.40;;;;;;5052863;28;20053;-74
2022/09/09 09:14:18;;;;;;;3.50;1.20;;;20.90;65.60;;;;;;5052100;28;20473;-74
2022/09/09 09:16:49;;;;;;;3.50;1.17;;;20.90;65.80;;;;;;5051959;28;20053;-74
2022/09/09 09:19:17;;;;;;;2.58;1.20;;;20.90;65.80;;;;;;5052101;28;20057;-74
2022/09/09 09:21:45;;;;;;;2.83;1.40;;;20.90;67.60;;;;;;5051395;28;20091;-74
2022/09/09 09:24:18;;;;;;;3.63;1.10;;;20.90;65.80;;;;;;5068337;28;20049;-74
2022/09/09 09:26:44;;;;;;;4.68;1.10;;;21.00;65.80;;;;;;5051298;28;20052;-73
2022/09/09 09:29:13;;;;;;;2.30;1.20;;;21.00;65.70;;;;;;5051785;28;20553;-74
2022/09/09 09:31:39;;;;;;;3.38;1.10;;;21.00;65.70;;;;;;5051266;28;20061;-74
2022/09/09 09:34:06;;;;;;;3.08;1.48;;;21.00;65.70;;;;;;5051417;28;20059;-74
2022/09/09 09:36:39;;;;;;;2.65;0.90;;;21.10;65.80;;;;;;5052356;28;20409;-73
2022/09/09 09:39:06;;;;;;;2.50;1.13;;;21.10;65.80;;;;;;5051615;28;20060;-73
2022/09/09 09:41:36;;;;;;;1.58;1.05;;;21.00;65.70;;;;;;5051384;28;20561;-75
2022/09/09 09:44:03;;;;;;;6.68;2.63;;;21.00;65.80;;;;;;5051087;28;20049;-73
2022/09/09 09:46:30;;;;;;;22.35;13.27;;;21.00;65.70;;;;;;5051237;28;20391;-73
2022/09/09 09:49:00;;;;;;;43.22;25.13;;;21.10;65.60;;;;;;5051484;28;20053;-74
2022/09/09 09:51:27;;;;;;;52.97;30.90;;;21.00;65.50;;;;;;5050571;28;20053;-73
2022/09/09 09:53:54;;;;;;;40.00;22.13;;;21.00;65.50;;;;;;5051249;28;20063;-73
2022/09/09 09:56:28;;;;;;;46.65;25.20;;;21.00;65.40;;;;;;5050576;28;20060;-73
2022/09/09 09:58:56;;;;;;;40.38;23.30;;;21.10;65.60;;;;;;5050455;28;20114;-74
2022/09/09 10:01:24;;;;;;;33.42;19.77;;;21.00;67.00;;;;;;5050849;28;20057;-74
2022/09/09 10:03:51;;;;;;;39.13;22.08;;;21.10;65.80;;;;;;5051268;28;20053;-74
2022/09/09 10:06:18;;;;;;;25.42;14.90;;;21.10;66.00;;;;;;5050639;28;20049;-74
2022/09/09 10:08:46;;;;;;;32.90;18.15;;;21.10;66.00;;;;;;5050449;28;20053;-74
2022/09/09 10:11:25;;;;;;;39.00;20.88;;;21.10;65.90;;;;;;5050833;28;20136;-73
2022/09/09 10:13:55;;;;;;;32.28;17.98;;;21.10;65.80;;;;;;5051031;28;20052;-72
2022/09/09 10:16:33;;;;;;;28.92;16.30;;;21.10;65.70;;;;;;5050839;28;20052;-73
2022/09/09 10:19:00;;;;;;;26.05;15.25;;;20.70;65.40;;;;;;5049321;28;20127;-74
2022/09/09 10:21:43;;;;;;;25.00;15.52;;;21.10;65.60;;;;;;5050608;28;20091;-74
2022/09/09 10:24:35;;;;;;;25.27;14.55;;;21.10;65.50;;;;;;5051119;28;20056;-74
2022/09/09 10:27:04;;;;;;;31.02;17.45;;;21.20;65.50;;;;;;5050607;28;20076;-73
2022/09/09 10:29:43;;;;;;;24.90;16.20;;;21.10;65.50;;;;;;5050024;28;20056;-72
2022/09/09 10:32:24;;;;;;;26.02;15.32;;;21.20;65.50;;;;;;5048529;28;20485;-73
2022/09/09 10:34:56;;;;;;;22.25;13.38;;;21.20;65.50;;;;;;5051391;28;20048;-73
2022/09/09 10:37:31;;;;;;;21.10;13.70;;;21.20;65.30;;;;;;5049895;28;20064;-73
2022/09/09 10:40:00;;;;;;;;;;;21.20;65.30;;;;;;5050533;28;20055;-73
2022/09/09 10:42:29;;;;;;;22.15;13.80;;;21.20;65.30;;;;;;5047557;28;19927;-73
2022/09/09 10:45:02;;;;;;;19.35;11.73;;;21.20;65.30;;;;;;5050255;28;20067;-73
2022/09/09 10:47:51;;;;;;;18.00;11.25;;;21.30;65.20;;;;;;5047813;28;20052;-73
2022/09/09 10:50:40;;;;;;;21.42;13.00;;;21.30;65.10;;;;;;5049857;28;20057;-73
2022/09/09 10:53:10;;;;;;;19.17;11.82;;;21.30;65.00;;;;;;5045604;28;20405;-73
2022/09/09 10:55:38;;;;;;;19.70;11.27;;;21.40;65.00;;;;;;5050037;28;20056;-73
2022/09/09 10:58:05;;;;;;;17.83;10.50;;;21.40;64.90;;;;;;5050115;28;20080;-73
2022/09/09 11:00:36;;;;;;;18.75;11.55;;;21.40;64.80;;;;;;5049274;28;20391;-73
2022/09/09 11:03:06;;;;;;;16.70;10.10;;;21.40;65.40;;;;;;5050616;28;20433;-73
2022/09/09 11:05:36;;;;;;;14.30;8.70;;;21.40;64.80;;;;;;5050050;28;20704;-74
2022/09/09 11:08:06;;;;;;;18.83;10.85;;;21.40;64.80;;;;;;5050528;28;20057;-74
2022/09/09 11:10:38;;;;;;;13.93;8.95;;;21.30;64.60;;;;;;5053589;28;20048;-74
2022/09/09 11:13:06;;;;;;;14.63;8.95;;;21.40;64.60;;;;;;5053524;28;20052;-74
2022/09/09 11:15:43;;;;;;;14.05;9.57;;;21.40;64.50;;;;;;5053801;28;20049;-74
2022/09/09 11:18:13;;;;;;;16.88;9.23;;;21.50;64.50;;;;;;5054807;28;20048;-74
2022/09/09 11:20:40;;;;;;;15.07;8.77;;;21.50;64.50;;;;;;5053345;28;20057;-73
2022/09/09 11:23:10;;;;;;;15.63;8.70;;;21.50;64.50;;;;;;5053044;28;20057;-74
2022/09/09 11:25:39;;;;;;;14.07;8.15;;;21.60;64.40;;;;;;5053339;28;20057;-73
2022/09/09 11:28:19;;;;;;;14.63;8.50;;;21.60;64.30;;;;;;5051031;28;20107;-74
2022/09/09 11:30:50;;;;;;;15.50;8.98;;;21.60;64.30;;;;;;5052945;28;20063;-74
2022/09/09 11:33:40;;;;;;;12.38;7.88;;;21.70;64.20;;;;;;5050993;28;20049;-74
2022/09/09 11:36:19;;;;;;;15.48;8.38;;;21.70;64.20;;;;;;5050386;28;20045;-74
2022/09/09 11:38:46;;;;;;;13.48;7.90;;;21.70;64.10;;;;;;5051737;28;20140;-74
2022/09/09 11:41:13;;;;;;;15.30;8.10;;;21.70;64.10;;;;;;5051647;28;20057;-74
2022/09/09 11:43:41;;;;;;;9.52;6.75;;;21.70;64.10;;;;;;5051682;28;20494;-74
2022/09/09 11:46:07;;;;;;;11.73;7.22;;;21.70;64.10;;;;;;5051642;28;20048;-74
2022/09/09 11:48:35;;;;;;;10.73;6.88;;;21.70;64.10;;;;;;5052410;28;20056;-74
2022/09/09 11:51:07;;;;;;;10.38;6.85;;;21.70;64.00;;;;;;5052978;28;20068;-74
2022/09/09 11:53:34;;;;;;;11.50;6.50;;;21.70;64.00;;;;;;5053727;28;20061;-74
2022/09/09 11:56:06;;;;;;;9.40;6.00;;;21.70;64.10;;;;;;5053541;28;20053;-74
2022/09/09 11:58:39;;;;;;;8.43;5.53;;;21.60;64.00;;;;;;5053622;28;20135;-74
2022/09/09 12:01:15;;;;;;;8.60;5.80;;;21.70;64.10;;;;;;5053130;28;20116;-74
2022/09/09 12:03:43;;;;;;;9.27;5.90;;;21.70;64.00;;;;;;5053092;28;20051;-74
2022/09/09 12:06:14;;;;;;;8.45;5.53;;;21.70;64.10;;;;;;5053139;28;20059;-74
2022/09/09 12:08:42;;;;;;;10.95;5.95;;;21.60;64.00;;;;;;5053498;28;20064;-74
2022/09/09 12:11:08;;;;;;;10.27;6.30;;;21.60;64.00;;;;;;5052865;28;20089;-74
2022/09/09 12:13:36;;;;;;;8.98;5.55;;;21.60;64.00;;;;;;5052630;28;20048;-74
2022/09/09 12:16:05;;;;;;;7.65;5.30;;;21.70;64.10;;;;;;5052930;28;20135;-74
2022/09/09 12:18:34;;;;;;;9.43;5.05;;;21.70;64.70;;;;;;5052919;28;20085;-73
2022/09/09 12:21:04;;;;;;;8.32;5.43;;;21.70;64.10;;;;;;5051793;28;20057;-74
2022/09/09 12:23:36;;;;;;;7.57;5.13;;;21.70;64.00;;;;;;5053081;28;20059;-74
2022/09/09 12:26:14;;;;;;;7.85;4.60;;;21.80;64.00;;;;;;5052634;28;20065;-74
2022/09/09 12:28:50;;;;;;;10.45;4.50;;;21.80;64.00;;;;;;5054213;28;20049;-74
2022/09/09 12:31:18;;;;;;;7.18;4.25;;;21.80;64.00;;;;;;5052342;28;20060;-76
2022/09/09 12:33:47;;;;;;;7.63;4.80;;;21.80;64.00;;;;;;5052782;28;20140;-74
2022/09/09 12:36:15;;;;;;;8.07;4.97;;;21.80;63.90;;;;;;5052295;28;20045;-74
2022/09/09 12:38:44;;;;;;;6.30;4.50;;;21.80;63.90;;;;;;5051928;28;20053;-73
2022/09/09 12:41:20;;;;;;;7.45;4.43;;;21.80;63.90;;;;;;5051769;28;20056;-74
2022/09/09 12:43:46;;;;;;;8.32;4.43;;;21.90;63.90;;;;;;5050595;28;20052;-74
2022/09/09 12:46:21;;;;;;;6.38;4.05;;;21.90;63.90;;;;;;5051419;28;20057;-74
2022/09/09 12:48:48;;;;;;;;;;;21.80;63.80;;;;;;5052132;28;20055;-74
2022/09/09 12:51:19;;;;;;;7.22;4.03;;;21.80;63.90;;;;;;5051175;28;19928;-73
2022/09/09 12:53:47;;;;;;;6.53;4.07;;;21.80;63.90;;;;;;5050980;28;20096;-74
2022/09/09 12:56:19;;;;;;;7.35;4.10;;;21.80;63.90;;;;;;5051169;28;20076;-74